Time;durP1;ratioP1;P1;durP2;ratioP2;P2;SDS_P1;SDS_P2;PMS_P1;PMS_P2;Temp;Humidity;BMP_temperature;BMP_pressure;BME280_temperature;BME280_humidity;BME280_pressure;Samples;Min_cycle;Max_cycle;Signal;HPM_P1;HPM_P2
2022/02/19 00:04:43;;;;;;;9.77;1.55;;;9.80;66.70;;;;;;20745738;28;20064;-76
2022/02/19 00:14:43;;;;;;;2.78;0.90;;;9.80;66.60;;;;;;20750755;28;20061;-77
2022/02/19 00:24:45;;;;;;;7.38;0.90;;;9.80;66.20;;;;;;20747746;28;20048;-76
2022/02/19 00:34:45;;;;;;;5.15;1.75;;;9.80;65.90;;;;;;20747967;28;20073;-75
2022/02/19 00:44:48;;;;;;;5.25;1.20;;;9.70;65.50;;;;;;20713748;28;20050;-75
2022/02/19 00:54:48;;;;;;;3.25;0.80;;;9.70;65.40;;;;;;20714270;28;20045;-77
2022/02/19 01:04:49;;;;;;;3.60;1.00;;;9.70;64.90;;;;;;20729808;28;20041;-76
2022/02/19 01:14:50;;;;;;;3.22;0.70;;;9.70;64.60;;;;;;20729633;28;20123;-75
2022/02/19 01:24:51;;;;;;;3.22;1.17;;;9.70;64.30;;;;;;20710981;28;20131;-75
2022/02/19 01:34:53;;;;;;;2.90;0.80;;;9.80;63.90;;;;;;20711450;28;20041;-76
2022/02/19 01:44:54;;;;;;;3.72;0.65;;;9.60;63.40;;;;;;20743201;28;20126;-76
2022/02/19 01:54:55;;;;;;;2.17;1.10;;;9.60;62.90;;;;;;20710554;28;20077;-76
2022/02/19 02:05:11;;;;;;;4.32;0.77;;;9.60;62.80;;;;;;20728591;28;20117;-76
2022/02/19 02:15:26;;;;;;;7.53;1.30;;;9.60;62.50;;;;;;20723504;28;20042;-75
2022/02/19 02:25:37;;;;;;;5.03;1.20;;;9.60;62.70;;;;;;20733380;28;20034;-74
2022/02/19 11:37:15;;;;;;;8.30;1.65;;;8.70;67.70;;;;;;21184764;27;1322939;-77
2022/02/19 11:47:24;;;;;;;4.60;1.17;;;9.00;70.80;;;;;;21196666;28;20050;-75
2022/02/19 11:57:31;;;;;;;5.55;1.30;;;9.10;70.50;;;;;;21180069;28;20110;-75
2022/02/19 12:07:59;;;;;;;2.57;1.20;;;9.10;70.00;;;;;;21196477;28;20514;-76
2022/02/19 12:17:59;;;;;;;;;;;9.20;69.50;;;;;;21195547;28;20035;-75
2022/02/19 12:28:16;;;;;;;4.60;1.65;;;9.20;69.20;;;;;;21188302;28;20007;-79
2022/02/19 12:38:18;;;;;;;6.55;1.73;;;9.20;68.70;;;;;;21085682;28;20035;-80
2022/02/19 12:48:19;;;;;;;7.40;1.35;;;9.20;68.60;;;;;;21105324;28;20044;-79
2022/02/19 12:58:19;;;;;;;7.70;1.38;;;9.20;68.20;;;;;;21101233;28;20070;-78
2022/02/19 13:08:21;;;;;;;2.92;1.10;;;9.20;68.10;;;;;;21093698;28;20546;-75
2022/02/19 13:18:22;;;;;;;6.20;1.42;;;9.20;67.90;;;;;;21075846;28;20027;-79
2022/02/19 13:28:22;;;;;;;3.15;1.00;;;9.20;67.30;;;;;;21108548;28;20157;-78
2022/02/19 13:38:23;;;;;;;5.07;1.25;;;9.20;67.00;;;;;;21067393;28;20476;-78
2022/02/19 13:48:30;;;;;;;5.50;1.17;;;9.20;67.00;;;;;;21084183;28;20068;-76
2022/02/19 13:58:35;;;;;;;7.10;1.20;;;9.20;66.80;;;;;;21011676;28;20511;-76
2022/02/19 14:08:36;;;;;;;3.75;1.23;;;9.20;66.70;;;;;;20999205;28;20071;-76
2022/02/19 14:18:36;;;;;;;5.35;1.48;;;9.20;66.50;;;;;;21040815;28;20092;-76
2022/02/19 14:28:38;;;;;;;6.07;1.33;;;9.20;66.40;;;;;;21035132;28;20131;-77
2022/02/19 14:38:38;;;;;;;3.95;0.98;;;9.20;66.20;;;;;;20973671;28;20063;-76
2022/02/19 14:48:39;;;;;;;2.70;1.13;;;9.20;66.10;;;;;;21027179;28;20028;-80
2022/02/19 14:58:40;;;;;;;5.03;1.20;;;9.20;66.00;;;;;;21004314;28;20482;-73
2022/02/19 15:08:40;;;;;;;4.90;1.23;;;9.20;65.80;;;;;;21037865;28;20028;-85
2022/02/19 15:18:43;;;;;;;3.67;1.27;;;9.20;65.50;;;;;;21003568;28;20111;-83
2022/02/19 15:28:44;;;;;;;7.00;1.27;;;9.20;64.70;;;;;;21011697;28;20372;-86
2022/02/19 15:38:45;;;;;;;3.47;0.93;;;9.30;64.60;;;;;;21072432;28;20140;-79
2022/02/19 15:48:45;;;;;;;7.20;1.15;;;9.30;64.50;;;;;;21068578;28;20289;-83
2022/02/19 15:58:46;;;;;;;4.57;1.38;;;9.20;64.50;;;;;;21098853;28;20701;-81
2022/02/19 16:08:46;;;;;;;2.42;0.98;;;9.30;64.70;;;;;;21147485;28;20050;-81
2022/02/19 16:18:47;;;;;;;2.45;0.82;;;9.30;64.70;;;;;;21112047;28;20024;-78
2022/02/19 16:28:47;;;;;;;5.45;1.17;;;9.20;64.70;;;;;;21044744;28;20403;-71
2022/02/19 16:38:48;;;;;;;5.78;1.10;;;9.20;64.70;;;;;;21076396;28;20510;-75
2022/02/19 16:48:49;;;;;;;3.05;0.70;;;9.20;64.70;;;;;;21167820;28;20036;-74
2022/02/19 16:58:49;;;;;;;4.40;1.00;;;9.20;64.70;;;;;;21062613;28;20134;-74
2022/02/19 17:08:51;;;;;;;1.98;0.80;;;9.20;64.80;;;;;;21109597;28;20294;-78
2022/02/19 17:18:52;;;;;;;2.92;0.70;;;9.20;64.80;;;;;;21067491;28;20537;-75
2022/02/19 17:28:52;;;;;;;2.67;0.90;;;9.20;65.20;;;;;;21107473;28;20043;-75
2022/02/19 17:38:55;;;;;;;2.63;1.10;;;9.20;65.10;;;;;;21008278;28;20032;-77
2022/02/19 17:48:56;;;;;;;1.23;0.70;;;9.20;65.10;;;;;;20979195;28;20100;-75
2022/02/19 17:58:57;;;;;;;3.72;1.00;;;9.20;65.10;;;;;;21068305;28;20501;-74
2022/02/19 18:08:58;;;;;;;2.25;0.77;;;9.20;65.20;;;;;;21044896;28;20152;-76
2022/02/19 18:18:58;;;;;;;4.03;0.93;;;9.20;65.20;;;;;;21043634;28;20020;-75
2022/02/19 18:28:59;;;;;;;1.50;0.95;;;9.20;65.20;;;;;;21066997;28;20297;-75
2022/02/19 18:39:00;;;;;;;2.75;0.90;;;9.10;65.20;;;;;;21125755;28;20524;-74
2022/02/19 18:49:01;;;;;;;2.22;1.00;;;9.20;65.40;;;;;;21126864;28;20040;-74
2022/02/19 18:59:02;;;;;;;1.52;0.77;;;9.20;65.50;;;;;;21047790;28;20290;-75
2022/02/19 19:09:03;;;;;;;4.03;1.00;;;9.20;65.50;;;;;;21031929;28;20046;-74
2022/02/19 19:19:06;;;;;;;3.20;0.70;;;9.20;65.60;;;;;;21025438;28;20024;-75
2022/02/19 19:29:07;;;;;;;2.30;0.85;;;9.20;65.70;;;;;;21077199;28;20388;-75
2022/02/19 19:39:07;;;;;;;1.38;0.60;;;9.20;65.70;;;;;;21041985;28;20036;-76
2022/02/19 19:49:08;;;;;;;3.58;0.70;;;9.20;65.60;;;;;;21074349;28;20036;-77
2022/02/19 19:59:08;;;;;;;3.58;0.80;;;9.20;65.60;;;;;;21005274;28;20111;-74
2022/02/19 20:09:09;;;;;;;2.22;1.27;;;9.20;65.60;;;;;;20968939;28;20040;-75
2022/02/19 20:19:10;;;;;;;2.50;0.80;;;9.20;65.60;;;;;;20967188;28;20098;-75
2022/02/19 20:29:11;;;;;;;3.45;1.05;;;9.20;65.50;;;;;;20994764;28;20040;-76
2022/02/19 20:39:15;;;;;;;1.17;0.70;;;9.20;65.50;;;;;;21018945;28;20085;-75
2022/02/19 20:49:16;;;;;;;2.75;1.00;;;9.10;65.50;;;;;;21051210;28;20047;-75
2022/02/19 20:59:16;;;;;;;1.75;0.85;;;9.10;65.50;;;;;;21033638;28;20036;-75
2022/02/19 21:09:17;;;;;;;2.70;1.02;;;9.20;65.60;;;;;;21049172;28;20093;-76
2022/02/19 21:19:18;;;;;;;3.42;0.98;;;9.20;65.60;;;;;;21031816;28;20479;-75
2022/02/19 21:29:18;;;;;;;2.28;0.82;;;9.10;65.60;;;;;;21046107;28;20091;-75
2022/02/19 21:39:19;;;;;;;2.77;0.90;;;9.10;65.80;;;;;;21064010;28;20051;-75
2022/02/19 21:49:20;;;;;;;1.03;0.60;;;9.10;65.80;;;;;;21030066;28;20286;-75
2022/02/19 21:59:20;;;;;;;1.77;0.88;;;9.10;65.90;;;;;;21012666;28;20282;-76
2022/02/19 22:09:21;;;;;;;1.35;0.63;;;9.10;66.00;;;;;;21044496;28;20039;-75
2022/02/19 22:19:21;;;;;;;1.63;0.70;;;9.10;66.10;;;;;;21027651;28;20111;-77
2022/02/19 22:29:23;;;;;;;0.35;0.30;;;9.10;66.10;;;;;;21015909;28;20071;-74
2022/02/19 22:39:25;;;;;;;3.05;0.68;;;9.10;66.20;;;;;;20956100;28;20039;-76
2022/02/19 22:49:25;;;;;;;1.88;0.68;;;9.20;66.30;;;;;;20969198;28;20492;-75
2022/02/19 22:59:26;;;;;;;1.95;0.50;;;9.10;66.30;;;;;;20957708;28;20036;-75
2022/02/19 23:09:27;;;;;;;3.80;0.80;;;9.10;66.40;;;;;;20941093;28;20151;-76
2022/02/19 23:19:27;;;;;;;0.73;0.50;;;9.10;66.50;;;;;;20957712;28;20032;-76
2022/02/19 23:29:29;;;;;;;0.45;0.40;;;9.20;66.60;;;;;;20990283;28;20068;-75
2022/02/19 23:39:29;;;;;;;1.95;0.60;;;9.10;66.60;;;;;;20986596;28;20534;-75
2022/02/19 23:49:30;;;;;;;1.05;0.52;;;9.20;66.80;;;;;;21022954;28;20464;-75
2022/02/19 23:59:30;;;;;;;1.67;0.57;;;9.20;66.80;;;;;;21072733;28;20024;-75
